createdAt,value
2023-05-16T13:02:49.241Z,19.30
2023-05-16T13:05:17.678Z,19.30
2023-05-16T13:07:51.626Z,19.20
2023-05-16T13:10:20.199Z,19.30
2023-05-16T13:12:48.553Z,19.30
2023-05-16T13:15:16.787Z,19.30
2023-05-16T13:17:45.248Z,19.30
2023-05-16T13:20:15.661Z,19.20
2023-05-16T13:22:44.289Z,19.20
2023-05-16T13:25:13.280Z,19.20
2023-05-16T13:27:41.648Z,19.10
2023-05-16T13:30:11.141Z,19.10
2023-05-16T13:32:39.481Z,19.10
2023-05-16T13:35:09.715Z,19.00
2023-05-16T13:37:41.482Z,19.00
2023-05-16T13:40:11.348Z,18.90
2023-05-16T13:42:39.862Z,18.90
2023-05-16T13:45:09.116Z,18.80
2023-05-16T13:47:37.802Z,18.80
2023-05-16T13:50:10.393Z,18.60
2023-05-16T13:52:40.724Z,18.60
2023-05-16T13:55:09.774Z,18.40
2023-05-16T13:57:38.121Z,18.30
2023-05-16T14:02:44.032Z,18.00
2023-05-16T14:05:13.906Z,17.80
2023-05-16T14:07:46.126Z,17.60
2023-05-16T14:10:15.177Z,17.50
2023-05-16T14:12:43.588Z,17.40
2023-05-16T14:15:12.152Z,17.20
2023-05-16T14:17:40.535Z,17.10
2023-05-16T14:20:10.772Z,17.10
2023-05-16T14:22:39.136Z,17.10
2023-05-16T14:25:09.734Z,17.10
2023-05-16T14:27:37.960Z,17.10
2023-05-16T14:30:08.203Z,17.10
2023-05-16T14:32:36.677Z,17.00
2023-05-16T14:35:06.220Z,16.90
2023-05-16T14:37:34.553Z,16.90
2023-05-16T14:40:02.844Z,16.90
2023-05-16T14:42:32.572Z,16.90
2023-05-16T14:45:00.844Z,16.90
2023-05-16T14:47:31.431Z,16.90
2023-05-16T14:50:01.291Z,17.00
2023-05-16T14:52:29.604Z,16.90
2023-05-16T14:54:57.758Z,16.90
2023-05-16T14:57:25.948Z,16.90
2023-05-16T14:59:55.634Z,16.90
2023-05-16T15:02:23.963Z,16.90
2023-05-16T15:04:52.356Z,16.90
2023-05-16T15:07:20.858Z,16.80
2023-05-16T15:09:49.051Z,16.80
2023-05-16T15:12:17.505Z,16.70
2023-05-16T15:14:45.971Z,16.60
2023-05-16T15:17:15.898Z,16.60
2023-05-16T15:19:44.181Z,16.50
2023-05-16T15:22:12.601Z,16.50
2023-05-16T15:24:40.992Z,16.40
2023-05-16T15:27:09.228Z,16.40
2023-05-16T15:29:37.454Z,16.30
2023-05-16T15:32:06.751Z,16.20
2023-05-16T15:34:36.637Z,16.20
2023-05-16T15:37:05.105Z,16.10
2023-05-16T15:39:33.436Z,16.00
2023-05-16T15:42:10.844Z,16.00
2023-05-16T15:44:39.877Z,16.00
2023-05-16T15:47:08.616Z,16.00
2023-05-16T15:49:38.228Z,15.90
2023-05-16T15:52:07.092Z,15.90
2023-05-16T15:54:35.706Z,15.80
2023-05-16T15:57:04.005Z,15.80
2023-05-16T15:59:32.406Z,15.80
2023-05-16T16:02:04.331Z,15.80
2023-05-16T16:04:32.906Z,15.80
2023-05-16T16:07:06.559Z,15.70
2023-05-16T16:09:34.984Z,15.70
2023-05-16T16:12:03.519Z,15.70
2023-05-16T16:14:31.693Z,15.60
2023-05-16T16:16:59.941Z,15.60
2023-05-16T16:19:28.211Z,15.50
2023-05-16T16:21:56.705Z,15.40
2023-05-16T16:24:26.508Z,15.40
2023-05-16T16:26:54.774Z,15.40
2023-05-16T16:29:23.259Z,15.40
2023-05-16T16:31:53.273Z,15.30
2023-05-16T16:34:23.278Z,15.30
2023-05-16T16:36:51.684Z,15.20
2023-05-16T16:39:19.903Z,15.10
2023-05-16T16:41:49.974Z,15.10
2023-05-16T16:44:18.190Z,15.10
2023-05-16T16:46:46.512Z,15.10
2023-05-16T16:49:14.795Z,15.10
2023-05-16T16:51:43.048Z,15.10
2023-05-16T16:54:11.252Z,15.00
2023-05-16T16:56:39.421Z,15.00
2023-05-16T16:59:09.279Z,15.00
2023-05-16T17:01:37.717Z,14.90
2023-05-16T17:04:06.345Z,14.90
2023-05-16T17:06:34.529Z,14.90
2023-05-16T17:09:05.295Z,14.90
2023-05-16T17:11:36.350Z,14.90
2023-05-16T17:14:06.336Z,14.90
2023-05-16T17:16:41.000Z,14.80
2023-05-16T17:19:09.390Z,14.80
2023-05-16T17:21:41.943Z,14.80
2023-05-16T17:24:10.837Z,14.80
2023-05-16T17:26:39.285Z,14.80
2023-05-16T17:29:07.754Z,14.80
2023-05-16T17:31:36.325Z,14.70
2023-05-16T17:34:06.374Z,14.80
2023-05-16T17:36:34.727Z,14.80
2023-05-16T17:39:07.891Z,14.80
2023-05-16T17:41:36.363Z,14.80
2023-05-16T17:44:06.923Z,14.80
2023-05-16T17:46:35.273Z,14.80
2023-05-16T17:49:03.503Z,14.80
2023-05-16T17:51:46.597Z,14.80
2023-05-16T17:54:16.309Z,14.80
2023-05-16T17:56:45.976Z,14.70
2023-05-16T17:59:15.555Z,14.60
2023-05-16T18:01:44.995Z,14.70
2023-05-16T18:04:13.411Z,14.60
2023-05-16T18:06:44.161Z,14.60
2023-05-16T18:09:15.078Z,14.60
2023-05-16T18:11:43.298Z,14.60
2023-05-16T18:14:12.910Z,14.60
2023-05-16T18:16:41.154Z,14.50
2023-05-16T18:19:09.665Z,14.50
2023-05-16T18:21:38.502Z,14.50
2023-05-16T18:24:11.534Z,14.50
2023-05-16T18:26:39.866Z,14.50
2023-05-16T18:29:10.717Z,14.40
2023-05-16T18:31:41.388Z,14.40
2023-05-16T18:34:09.766Z,14.40
2023-05-16T18:36:37.967Z,14.40
2023-05-16T18:39:09.006Z,14.30
2023-05-16T18:41:37.246Z,14.40
2023-05-16T18:44:05.791Z,14.20
2023-05-16T18:46:34.328Z,14.20
2023-05-16T18:49:02.750Z,14.30
2023-05-16T18:51:31.093Z,14.20
2023-05-16T18:53:59.527Z,14.30
2023-05-16T18:56:29.261Z,14.30
2023-05-16T18:58:57.450Z,14.20
2023-05-16T19:01:25.694Z,14.30
2023-05-16T19:03:54.081Z,14.30
2023-05-16T19:06:23.364Z,14.20
2023-05-16T19:08:51.889Z,14.20
2023-05-16T19:11:20.224Z,14.20
2023-05-16T19:13:49.925Z,14.20
2023-05-16T19:16:18.816Z,14.20
2023-05-16T19:18:47.248Z,14.20
2023-05-16T19:21:16.052Z,14.10
2023-05-16T19:23:45.355Z,14.20
2023-05-16T19:26:14.032Z,14.20
2023-05-16T19:28:45.073Z,14.20
2023-05-16T19:31:15.057Z,14.10
2023-05-16T19:33:43.291Z,14.10
2023-05-16T19:36:11.862Z,14.10
2023-05-16T19:38:40.220Z,14.10
2023-05-16T19:41:09.007Z,14.10
2023-05-16T19:43:37.709Z,14.00
2023-05-16T19:46:06.955Z,14.00
2023-05-16T19:48:37.012Z,14.00
2023-05-16T19:51:05.573Z,14.00
2023-05-16T19:53:34.101Z,14.00
2023-05-16T19:56:02.968Z,14.00
2023-05-16T19:58:31.430Z,14.00
2023-05-16T20:01:00.175Z,14.00
2023-05-16T20:03:28.717Z,14.00
2023-05-16T20:05:58.636Z,13.90
2023-05-16T20:08:27.059Z,14.00
2023-05-16T20:10:55.982Z,14.00
2023-05-16T20:13:25.765Z,14.00
2023-05-16T20:15:53.951Z,13.90
2023-05-16T20:18:22.206Z,13.90
2023-05-16T20:20:50.774Z,13.90
2023-05-16T20:23:20.452Z,13.90
2023-05-16T20:25:48.712Z,13.90
2023-05-16T20:28:17.094Z,13.90
2023-05-16T20:30:45.586Z,13.90
2023-05-16T20:33:13.931Z,13.90
2023-05-16T20:35:42.487Z,13.80
2023-05-16T20:38:10.632Z,13.80
2023-05-16T20:40:40.275Z,13.80
2023-05-16T20:43:08.497Z,13.80
2023-05-16T20:45:36.881Z,13.70
2023-05-16T20:48:08.240Z,13.70
2023-05-16T20:50:39.141Z,13.70
2023-05-16T20:53:07.450Z,13.60
2023-05-16T20:55:35.805Z,13.70
2023-05-16T20:58:05.399Z,13.70
2023-05-16T21:00:34.111Z,13.70
2023-05-16T21:03:02.397Z,13.60
2023-05-16T21:05:32.584Z,13.60
2023-05-16T21:08:00.897Z,13.60
2023-05-16T21:10:29.129Z,13.50
2023-05-16T21:12:57.341Z,13.50
2023-05-16T21:15:27.109Z,13.50
2023-05-16T21:17:55.423Z,13.50
2023-05-16T21:20:23.664Z,13.50
2023-05-16T21:23:02.151Z,13.50
2023-05-16T21:25:30.506Z,13.40
2023-05-16T21:27:58.850Z,13.40
2023-05-16T21:30:28.363Z,13.30
2023-05-16T21:32:56.716Z,13.20
2023-05-16T21:35:25.420Z,13.20
2023-05-16T21:37:53.801Z,13.20
2023-05-16T21:40:25.051Z,13.20
2023-05-16T21:42:53.706Z,13.10
2023-05-16T21:45:22.069Z,13.10
2023-05-16T21:47:51.748Z,13.00
2023-05-16T21:50:20.211Z,13.00
2023-05-16T21:52:48.645Z,13.00
2023-05-16T21:55:16.892Z,13.00
2023-05-16T21:57:45.072Z,12.90
2023-05-16T22:00:14.601Z,13.00
2023-05-16T22:02:43.085Z,12.80
2023-05-16T22:05:13.697Z,12.90
2023-05-16T22:07:42.078Z,12.90
2023-05-16T22:10:11.621Z,12.80
2023-05-16T22:12:39.768Z,12.80
2023-05-16T22:15:09.012Z,12.80
2023-05-16T22:17:37.295Z,12.80
2023-05-16T22:20:06.230Z,12.80
2023-05-16T22:22:36.402Z,12.80
2023-05-16T22:25:05.346Z,12.70
2023-05-16T22:27:33.492Z,12.80
2023-05-16T22:30:01.673Z,12.70
2023-05-16T22:32:29.979Z,12.70
2023-05-16T22:34:58.113Z,12.60
2023-05-16T22:37:26.952Z,12.60
2023-05-16T22:39:57.392Z,12.70
2023-05-16T22:42:25.987Z,12.60
2023-05-16T22:44:54.226Z,12.60
2023-05-16T22:47:22.461Z,12.60
2023-05-16T22:49:51.100Z,12.50
2023-05-16T22:52:19.309Z,12.50
2023-05-16T22:54:47.618Z,12.50
2023-05-16T22:57:17.311Z,12.60
2023-05-16T22:59:45.452Z,12.50
2023-05-16T23:02:13.654Z,12.60
2023-05-16T23:04:41.842Z,12.50
2023-05-16T23:07:10.046Z,12.50
2023-05-16T23:09:38.348Z,12.40
2023-05-16T23:12:07.019Z,12.50
2023-05-16T23:14:36.573Z,12.50
2023-05-16T23:17:05.443Z,12.50
2023-05-16T23:19:33.795Z,12.40
2023-05-16T23:22:03.517Z,12.40
2023-05-16T23:24:31.685Z,12.40
2023-05-16T23:26:59.876Z,12.30
2023-05-16T23:29:28.037Z,12.40
2023-05-16T23:31:57.564Z,12.40
2023-05-16T23:34:25.747Z,12.40
2023-05-16T23:36:53.991Z,12.40
2023-05-16T23:39:22.309Z,12.30
2023-05-16T23:41:50.529Z,12.30
2023-05-16T23:44:18.913Z,12.40
2023-05-16T23:46:47.064Z,12.30
2023-05-16T23:49:16.746Z,12.30
2023-05-16T23:51:56.855Z,12.30
2023-05-16T23:54:26.436Z,12.30
2023-05-16T23:56:55.068Z,12.40
2023-05-16T23:59:23.233Z,12.30
